Darstellungsparameter: Aktuell verwendete Einstellungen:
Skalierung der Graphiken ... ?
xyx+y,   Skalierungsfaktor:      Skalierung: Modus: x, Faktor: 1
Darstellungszeitraum ... ?
Vom - - bis: - -   Zeitraum: 28.08.2020 - 29.08.2020
Min/Max/Avg-Anzeige ... ?
Zeige MMA aktuell
Zeige MMA Monat
Zeige MMA alles
Zeige --A aktuell
Zeige --A Monat
Zeige --A alles
Keine MMA-Anzeige
MMA:
Average (ber die Originaldaten)
MMA-Basis: 28.08.2020 - 29.08.2020
Quicknavigation für Darstellung... ?
Tage:      1T, 2T, 3T, 5T -1T -2T -3T -5T +1T +2T +3T +5T
Wochen: 1W, 2W, 3W -1W -2W -3W +1W +2W +3W
Monate: 1M, 3M, 6M -1M -3M -6M +1M +3M +6M
Jahre:    1J, 3J, 5J, 10J -1J -3J -5J -10J +1J +3J +5J +10J
Nutze für die Darstellung ... ?
Originaldaten oder Mittelwerte auf ...
Stundenbasis Tagesbasis Wochenbasis
Monatsbasis Jahresbasis      Datenbasis: Original-Daten
Darstellen als:
Statistik (Auto) Statistik J:M      Darstellung:
Zur Graphik,    zurück zur Übersicht aller Sensoren.
 
Tabellarische Datenbersicht: ?
 
Sensor: Nr:Datum:Temp:Abs-Feuchte:Windchill:Wind:
Aussen-T/F 1 28-08-2020 00:00:00 16.7 C 11.8 g/m*3 16.7 C 6.4 km/h
2 28-08-2020 00:05:00 16.6 C 11.72 g/m*3 16.6 C 6.4 km/h
3 28-08-2020 00:10:00 16.5 C 11.8 g/m*3 16.5 C 4.8 km/h
4 28-08-2020 00:15:00 16.4 C 11.58 g/m*3 16.4 C 4.8 km/h
5 28-08-2020 00:20:00 16.4 C 11.72 g/m*3 16.4 C 4.8 km/h
6 28-08-2020 00:25:00 16.4 C 11.72 g/m*3 16.4 C 4.8 km/h
7 28-08-2020 00:30:00 16.4 C 11.72 g/m*3 16.4 C 4.8 km/h
8 28-08-2020 00:35:00 16.4 C 11.72 g/m*3 16.4 C 0 km/h
9 28-08-2020 00:40:00 16.4 C 11.58 g/m*3 16.4 C 3.2 km/h
10 28-08-2020 00:45:00 16.4 C 11.45 g/m*3 16.4 C 3.2 km/h
11 28-08-2020 00:50:00 16.4 C 11.45 g/m*3 16.4 C 1.6 km/h
12 28-08-2020 00:55:00 16.4 C 11.45 g/m*3 16.4 C 0 km/h
13 28-08-2020 01:00:00 16.4 C 11.45 g/m*3 16.4 C 0 km/h
14 28-08-2020 01:05:00 16.6 C 11.72 g/m*3 16.6 C 0 km/h
15 28-08-2020 01:10:00 16.6 C 11.58 g/m*3 16.6 C 0 km/h
16 28-08-2020 01:15:00 16.6 C 11.72 g/m*3 16.6 C 0 km/h
17 28-08-2020 01:20:00 16.6 C 11.72 g/m*3 16.6 C 0 km/h
18 28-08-2020 01:25:00 16.7 C 11.65 g/m*3 16.7 C 0 km/h
19 28-08-2020 01:30:00 16.7 C 11.65 g/m*3 16.7 C 0 km/h
20 28-08-2020 01:35:00 16.7 C 11.8 g/m*3 16.7 C 0 km/h
21 28-08-2020 01:40:00 16.8 C 12.15 g/m*3 16.8 C 0 km/h
22 28-08-2020 01:45:00 16.8 C 12.3 g/m*3 16.8 C 4.8 km/h
23 28-08-2020 01:50:00 16.7 C 12.36 g/m*3 16.7 C 6.4 km/h
24 28-08-2020 01:55:00 16.7 C 12.51 g/m*3 16.7 C 6.4 km/h
25 28-08-2020 02:00:00 16.6 C 12.57 g/m*3 16.6 C 8.1 km/h
Sensor: Nr:Datum:Temp:Abs-Feuchte:Windchill:Wind:
Aussen-T/F 26 28-08-2020 02:05:00 16.6 C 12.57 g/m*3 16.6 C 4.8 km/h
27 28-08-2020 02:10:00 16.5 C 12.64 g/m*3 16.5 C 8.1 km/h
28 28-08-2020 02:15:00 16.5 C 12.64 g/m*3 16.5 C 4.8 km/h
29 28-08-2020 02:20:00 16.4 C 12.56 g/m*3 16.4 C 0 km/h
30 28-08-2020 02:25:00 16.5 C 12.78 g/m*3 16.5 C 4.8 km/h
31 28-08-2020 02:30:00 16.4 C 12.7 g/m*3 16.4 C 4.8 km/h
32 28-08-2020 02:35:00 16.4 C 12.7 g/m*3 16.4 C 3.2 km/h
33 28-08-2020 02:40:00 16.4 C 12.84 g/m*3 16.4 C 4.8 km/h
34 28-08-2020 02:45:00 16.3 C 12.76 g/m*3 16.3 C 1.6 km/h
35 28-08-2020 02:50:00 16.3 C 12.76 g/m*3 16.3 C 0 km/h
36 28-08-2020 02:55:00 16.2 C 12.69 g/m*3 16.2 C 0 km/h
37 28-08-2020 03:00:00 16.2 C 12.69 g/m*3 16.2 C 0 km/h
38 28-08-2020 03:05:00 16.1 C 12.61 g/m*3 16.1 C 1.6 km/h
39 28-08-2020 03:10:00 16 C 12.53 g/m*3 16 C 1.6 km/h
40 28-08-2020 03:15:00 15.9 C 12.46 g/m*3 15.9 C 3.2 km/h
41 28-08-2020 03:20:00 15.9 C 12.46 g/m*3 15.9 C 0 km/h
42 28-08-2020 03:25:00 15.9 C 12.59 g/m*3 15.9 C 0 km/h
43 28-08-2020 03:30:00 15.8 C 12.52 g/m*3 15.8 C 0 km/h
44 28-08-2020 03:35:00 15.8 C 12.52 g/m*3 15.8 C 0 km/h
45 28-08-2020 03:40:00 15.8 C 12.52 g/m*3 15.8 C 3.2 km/h
46 28-08-2020 03:45:00 15.8 C 12.52 g/m*3 15.8 C 4.8 km/h
47 28-08-2020 03:50:00 15.8 C 12.52 g/m*3 15.8 C 3.2 km/h
48 28-08-2020 03:55:00 15.8 C 12.52 g/m*3 15.8 C 3.2 km/h
49 28-08-2020 04:00:00 15.8 C 12.65 g/m*3 15.8 C 4.8 km/h
50 28-08-2020 04:05:00 15.7 C 12.58 g/m*3 15.7 C 4.8 km/h
Sensor: Nr:Datum:Temp:Abs-Feuchte:Windchill:Wind:
Aussen-T/F 51 28-08-2020 04:10:00 15.7 C 12.58 g/m*3 15.7 C 6.4 km/h
52 28-08-2020 04:15:00 15.7 C 12.58 g/m*3 15.7 C 4.8 km/h
53 28-08-2020 04:20:00 15.7 C 12.58 g/m*3 15.7 C 4.8 km/h
54 28-08-2020 04:25:00 15.7 C 12.58 g/m*3 15.7 C 3.2 km/h
55 28-08-2020 04:30:00 15.7 C 12.58 g/m*3 15.7 C 8.1 km/h
56 28-08-2020 04:35:00 15.8 C 12.65 g/m*3 15.8 C 4.8 km/h
57 28-08-2020 04:40:00 15.8 C 12.65 g/m*3 15.8 C 8.1 km/h
58 28-08-2020 04:45:00 15.7 C 12.58 g/m*3 15.7 C 6.4 km/h
59 28-08-2020 04:50:00 15.7 C 12.71 g/m*3 15.7 C 4.8 km/h
60 28-08-2020 04:55:00 15.7 C 12.71 g/m*3 15.7 C 6.4 km/h
61 28-08-2020 05:00:00 15.7 C 12.71 g/m*3 15.7 C 4.8 km/h
62 28-08-2020 05:05:00 15.8 C 12.79 g/m*3 15.8 C 4.8 km/h
63 28-08-2020 05:10:00 15.8 C 12.79 g/m*3 15.8 C 3.2 km/h
64 28-08-2020 05:15:00 15.8 C 12.79 g/m*3 15.8 C 3.2 km/h
65 28-08-2020 05:20:00 15.7 C 12.71 g/m*3 15.7 C 3.2 km/h
66 28-08-2020 05:25:00 15.7 C 12.71 g/m*3 15.7 C 3.2 km/h
67 28-08-2020 05:30:00 15.7 C 12.71 g/m*3 15.7 C 4.8 km/h
68 28-08-2020 05:35:00 15.6 C 12.63 g/m*3 15.6 C 3.2 km/h
69 28-08-2020 05:40:00 15.6 C 12.63 g/m*3 15.6 C 1.6 km/h
70 28-08-2020 05:45:00 15.5 C 12.56 g/m*3 15.5 C 0 km/h
71 28-08-2020 05:50:00 15.5 C 12.56 g/m*3 15.5 C 1.6 km/h
72 28-08-2020 05:55:00 15.4 C 12.48 g/m*3 15.4 C 3.2 km/h
73 28-08-2020 06:00:00 15.4 C 12.48 g/m*3 15.4 C 3.2 km/h
74 28-08-2020 06:05:00 15.4 C 12.48 g/m*3 15.4 C 3.2 km/h
75 28-08-2020 06:10:00 15.4 C 12.48 g/m*3 15.4 C 4.8 km/h
Sensor: Nr:Datum:Temp:Abs-Feuchte:Windchill:Wind:
Aussen-T/F 76 28-08-2020 06:15:00 15.5 C 12.56 g/m*3 15.5 C 1.6 km/h
77 28-08-2020 06:20:00 15.5 C 12.56 g/m*3 15.5 C 4.8 km/h
78 28-08-2020 06:25:00 15.6 C 12.63 g/m*3 15.6 C 9.7 km/h
79 28-08-2020 06:30:00 15.6 C 12.63 g/m*3 15.6 C 4.8 km/h
80 28-08-2020 06:35:00 15.6 C 12.63 g/m*3 15.6 C 3.2 km/h
81 28-08-2020 06:40:00 15.6 C 12.63 g/m*3 15.6 C 3.2 km/h
82 28-08-2020 06:45:00 15.6 C 12.63 g/m*3 15.6 C 3.2 km/h
83 28-08-2020 06:50:00 15.6 C 12.63 g/m*3 15.6 C 3.2 km/h
84 28-08-2020 06:55:00 15.5 C 12.56 g/m*3 15.5 C 4.8 km/h
85 28-08-2020 07:00:00 15.5 C 12.56 g/m*3 15.5 C 6.4 km/h
86 28-08-2020 07:05:00 15.5 C 12.56 g/m*3 15.5 C 1.6 km/h
87 28-08-2020 07:10:00 15.5 C 12.56 g/m*3 15.5 C 4.8 km/h
88 28-08-2020 07:15:00 15.5 C 12.56 g/m*3 15.5 C 3.2 km/h
89 28-08-2020 07:20:00 15.5 C 12.56 g/m*3 15.5 C 3.2 km/h
90 28-08-2020 07:25:00 15.5 C 12.56 g/m*3 15.5 C 3.2 km/h
91 28-08-2020 07:30:00 15.5 C 12.56 g/m*3 15.5 C 3.2 km/h
92 28-08-2020 07:35:00 15.6 C 12.63 g/m*3 15.6 C 3.2 km/h
93 28-08-2020 07:40:00 15.6 C 12.63 g/m*3 15.6 C 3.2 km/h
94 28-08-2020 07:45:00 15.7 C 12.71 g/m*3 15.7 C 0 km/h
95 28-08-2020 07:50:00 15.7 C 12.71 g/m*3 15.7 C 0 km/h
96 28-08-2020 07:55:00 15.7 C 12.71 g/m*3 15.7 C 0 km/h
97 28-08-2020 08:00:00 15.8 C 12.92 g/m*3 15.8 C 0 km/h
98 28-08-2020 08:05:00 15.8 C 12.92 g/m*3 15.8 C 0 km/h
99 28-08-2020 08:10:00 15.9 C 13 g/m*3 15.9 C 0 km/h
100 28-08-2020 08:15:00 15.9 C 13 g/m*3 15.9 C 0 km/h
Sensor: Nr:Datum:Temp:Abs-Feuchte:Windchill:Wind:
Aussen-T/F 101 28-08-2020 08:20:00 15.9 C 13 g/m*3 15.9 C 0 km/h
102 28-08-2020 08:25:00 16.1 C 13.02 g/m*3 16.1 C 0 km/h
103 28-08-2020 08:30:00 16.1 C 13.02 g/m*3 16.1 C 3.2 km/h
104 28-08-2020 08:35:00 16.1 C 13.02 g/m*3 16.1 C 3.2 km/h
105 28-08-2020 08:40:00 16.1 C 13.02 g/m*3 16.1 C 6.4 km/h
106 28-08-2020 08:45:00 16 C 12.81 g/m*3 16 C 1.6 km/h
107 28-08-2020 08:50:00 16.1 C 12.75 g/m*3 16.1 C 4.8 km/h
108 28-08-2020 08:55:00 16.1 C 12.75 g/m*3 16.1 C 1.6 km/h
109 28-08-2020 09:00:00 16.2 C 12.82 g/m*3 16.2 C 3.2 km/h
110 28-08-2020 09:05:00 16.3 C 12.9 g/m*3 16.3 C 1.6 km/h
111 28-08-2020 09:10:00 16.4 C 12.84 g/m*3 16.4 C 4.8 km/h
112 28-08-2020 09:15:00 16.4 C 12.56 g/m*3 16.4 C 3.2 km/h
113 28-08-2020 09:20:00 16.6 C 12.71 g/m*3 16.6 C 3.2 km/h
114 28-08-2020 09:25:00 16.7 C 12.65 g/m*3 16.7 C 6.4 km/h
115 28-08-2020 09:30:00 16.9 C 12.8 g/m*3 16.9 C 0 km/h
116 28-08-2020 09:35:00 17 C 13.02 g/m*3 17 C 1.6 km/h
117 28-08-2020 09:40:00 17.1 C 12.66 g/m*3 17.1 C 8.1 km/h
118 28-08-2020 09:45:00 17.1 C 12.23 g/m*3 17.1 C 4.8 km/h
119 28-08-2020 09:50:00 17.3 C 12.67 g/m*3 17.3 C 0 km/h
120 28-08-2020 09:55:00 17.4 C 12.89 g/m*3 17.4 C 1.6 km/h
121 28-08-2020 10:00:00 17.6 C 12.9 g/m*3 17.6 C 0 km/h
122 28-08-2020 10:05:00 17.7 C 12.67 g/m*3 17.7 C 6.4 km/h
123 28-08-2020 10:10:00 17.8 C 12.29 g/m*3 17.8 C 9.7 km/h
124 28-08-2020 10:15:00 18 C 12.13 g/m*3 18 C 6.4 km/h
125 28-08-2020 10:20:00 18.3 C 12.35 g/m*3 18.3 C 8.1 km/h
Sensor: Nr:Datum:Temp:Abs-Feuchte:Windchill:Wind:
Aussen-T/F 126 28-08-2020 10:25:00 18.5 C 12.18 g/m*3 18.5 C 12.9 km/h
127 28-08-2020 10:30:00 18.7 C 12.01 g/m*3 18.7 C 8.1 km/h
128 28-08-2020 10:35:00 18.8 C 11.92 g/m*3 18.8 C 14.5 km/h
129 28-08-2020 10:40:00 19 C 12.06 g/m*3 19 C 11.3 km/h
130 28-08-2020 10:45:00 19.2 C 12.2 g/m*3 19.2 C 9.7 km/h
131 28-08-2020 10:50:00 19.3 C 11.94 g/m*3 19.3 C 9.7 km/h
132 28-08-2020 10:55:00 19.3 C 11.94 g/m*3 19.3 C 9.7 km/h
133 28-08-2020 11:00:00 19.4 C 12.01 g/m*3 19.4 C 8.1 km/h
134 28-08-2020 11:05:00 19.6 C 11.82 g/m*3 19.6 C 12.9 km/h
135 28-08-2020 11:10:00 19.7 C 11.89 g/m*3 19.7 C 11.3 km/h
136 28-08-2020 11:15:00 19.8 C 11.79 g/m*3 19.8 C 9.7 km/h
137 28-08-2020 11:20:00 19.7 C 11.72 g/m*3 19.7 C 12.9 km/h
138 28-08-2020 11:25:00 19.7 C 11.89 g/m*3 19.7 C 11.3 km/h
139 28-08-2020 11:30:00 19.8 C 11.96 g/m*3 19.8 C 11.3 km/h
140 28-08-2020 11:35:00 20 C 12.1 g/m*3 20 C 14.5 km/h
141 28-08-2020 11:40:00 20.2 C 11.89 g/m*3 20.2 C 16.1 km/h
142 28-08-2020 11:45:00 20.3 C 11.96 g/m*3 20.3 C 9.7 km/h
143 28-08-2020 11:50:00 20.6 C 11.81 g/m*3 20.6 C 12.9 km/h
144 28-08-2020 11:55:00 20.7 C 12.24 g/m*3 20.7 C 6.4 km/h
145 28-08-2020 12:00:00 20.8 C 12.13 g/m*3 20.8 C 8.1 km/h
146 28-08-2020 12:05:00 20.8 C 12.13 g/m*3 20.8 C 9.7 km/h
147 28-08-2020 12:10:00 20.9 C 11.84 g/m*3 20.9 C 9.7 km/h
148 28-08-2020 12:15:00 20.8 C 11.77 g/m*3 20.8 C 11.3 km/h
149 28-08-2020 12:20:00 20.7 C 11.7 g/m*3 20.7 C 9.7 km/h
150 28-08-2020 12:25:00 20.7 C 11.88 g/m*3 20.7 C 4.8 km/h
Sensor: Nr:Datum:Temp:Abs-Feuchte:Windchill:Wind:
Aussen-T/F 151 28-08-2020 12:30:00 20.7 C 12.06 g/m*3 20.7 C 8.1 km/h
152 28-08-2020 12:35:00 20.6 C 11.99 g/m*3 20.6 C 8.1 km/h
153 28-08-2020 12:40:00 20.4 C 11.68 g/m*3 20.4 C 9.7 km/h
154 28-08-2020 12:45:00 20.4 C 11.85 g/m*3 20.4 C 9.7 km/h
155 28-08-2020 12:50:00 20.4 C 11.85 g/m*3 20.4 C 8.1 km/h
156 28-08-2020 12:55:00 20.4 C 11.5 g/m*3 20.4 C 9.7 km/h
157 28-08-2020 13:00:00 20.4 C 11.5 g/m*3 20.4 C 9.7 km/h
158 28-08-2020 13:05:00 20.4 C 11.32 g/m*3 20.4 C 9.7 km/h
159 28-08-2020 13:10:00 20.5 C 11.39 g/m*3 20.5 C 9.7 km/h
160 28-08-2020 13:15:00 20.4 C 11.32 g/m*3 20.4 C 12.9 km/h
161 28-08-2020 13:20:00 20.4 C 11.5 g/m*3 20.4 C 12.9 km/h
162 28-08-2020 13:25:00 20.3 C 11.26 g/m*3 20.3 C 9.7 km/h
163 28-08-2020 13:30:00 20.3 C 11.43 g/m*3 20.3 C 14.5 km/h
164 28-08-2020 13:35:00 20.3 C 11.61 g/m*3 20.3 C 9.7 km/h
165 28-08-2020 13:40:00 20.4 C 11.68 g/m*3 20.4 C 8.1 km/h
166 28-08-2020 13:45:00 20.5 C 11.74 g/m*3 20.5 C 8.1 km/h
167 28-08-2020 13:50:00 20.5 C 11.92 g/m*3 20.5 C 11.3 km/h
168 28-08-2020 13:55:00 20.5 C 11.57 g/m*3 20.5 C 4.8 km/h
169 28-08-2020 14:00:00 20.6 C 11.63 g/m*3 20.6 C 6.4 km/h
170 28-08-2020 14:05:00 20.7 C 11.7 g/m*3 20.7 C 6.4 km/h
171 28-08-2020 14:10:00 20.7 C 11.52 g/m*3 20.7 C 6.4 km/h
172 28-08-2020 14:15:00 20.8 C 11.59 g/m*3 20.8 C 8.1 km/h
173 28-08-2020 14:20:00 20.8 C 11.59 g/m*3 20.8 C 6.4 km/h
174 28-08-2020 14:25:00 20.8 C 11.59 g/m*3 20.8 C 6.4 km/h
175 28-08-2020 14:30:00 20.9 C 11.84 g/m*3 20.9 C 6.4 km/h
Sensor: Nr:Datum:Temp:Abs-Feuchte:Windchill:Wind:
Aussen-T/F 176 28-08-2020 14:35:00 20.9 C 11.66 g/m*3 20.9 C 4.8 km/h
177 28-08-2020 14:40:00 21 C 11.72 g/m*3 21 C 3.2 km/h
178 28-08-2020 14:45:00 21.1 C 11.79 g/m*3 21.1 C 3.2 km/h
179 28-08-2020 14:50:00 21.1 C 11.98 g/m*3 21.1 C 8.1 km/h
180 28-08-2020 14:55:00 21.1 C 11.61 g/m*3 21.1 C 4.8 km/h
181 28-08-2020 15:00:00 21 C 12.09 g/m*3 21 C 4.8 km/h
182 28-08-2020 15:05:00 21.1 C 11.98 g/m*3 21.1 C 11.3 km/h
183 28-08-2020 15:10:00 21.2 C 11.68 g/m*3 21.2 C 1.6 km/h
184 28-08-2020 15:15:00 21.3 C 11.56 g/m*3 21.3 C 6.4 km/h
185 28-08-2020 15:20:00 21.3 C 11.74 g/m*3 21.3 C 3.2 km/h
186 28-08-2020 15:25:00 21.3 C 11.37 g/m*3 21.3 C 8.1 km/h
187 28-08-2020 15:30:00 21.4 C 11.81 g/m*3 21.4 C 4.8 km/h
188 28-08-2020 15:35:00 21.4 C 11.62 g/m*3 21.4 C 6.4 km/h
189 28-08-2020 15:40:00 21.6 C 11.57 g/m*3 21.6 C 6.4 km/h
190 28-08-2020 15:45:00 21.6 C 11.38 g/m*3 21.6 C 8.1 km/h
191 28-08-2020 15:50:00 21.7 C 11.83 g/m*3 21.7 C 6.4 km/h
192 28-08-2020 15:55:00 21.7 C 11.83 g/m*3 21.7 C 8.1 km/h
193 28-08-2020 16:00:00 21.5 C 11.69 g/m*3 21.5 C 8.1 km/h
194 28-08-2020 16:05:00 21.4 C 11.62 g/m*3 21.4 C 8.1 km/h
195 28-08-2020 16:10:00 21.4 C 11.81 g/m*3 21.4 C 6.4 km/h
196 28-08-2020 16:15:00 21.4 C 11.81 g/m*3 21.4 C 6.4 km/h
197 28-08-2020 16:20:00 21.6 C 11.95 g/m*3 21.6 C 6.4 km/h
198 28-08-2020 16:25:00 21.6 C 11.95 g/m*3 21.6 C 6.4 km/h
199 28-08-2020 16:30:00 21.6 C 12.14 g/m*3 21.6 C 11.3 km/h
200 28-08-2020 16:35:00 21.7 C 12.02 g/m*3 21.7 C 11.3 km/h
Sensor: Nr:Datum:Temp:Abs-Feuchte:Windchill:Wind:
Aussen-T/F 201 28-08-2020 16:40:00 21.8 C 11.7 g/m*3 21.8 C 14.5 km/h
202 28-08-2020 16:45:00 21.9 C 12.16 g/m*3 21.9 C 11.3 km/h
203 28-08-2020 16:50:00 22.3 C 12.05 g/m*3 22.3 C 11.3 km/h
204 28-08-2020 16:55:00 22.6 C 12.05 g/m*3 22.6 C 12.9 km/h
205 28-08-2020 17:00:00 22.7 C 11.92 g/m*3 22.7 C 16.1 km/h
206 28-08-2020 17:05:00 22.8 C 11.99 g/m*3 22.8 C 9.7 km/h
207 28-08-2020 17:10:00 22.6 C 11.45 g/m*3 22.6 C 16.1 km/h
208 28-08-2020 17:15:00 22.4 C 11.72 g/m*3 22.4 C 17.7 km/h
209 28-08-2020 17:20:00 22.4 C 11.72 g/m*3 22.4 C 11.3 km/h
210 28-08-2020 17:25:00 22.4 C 11.52 g/m*3 22.4 C 12.9 km/h
211 28-08-2020 17:30:00 22.4 C 11.52 g/m*3 22.4 C 12.9 km/h
212 28-08-2020 17:35:00 22.4 C 10.92 g/m*3 22.4 C 16.1 km/h
213 28-08-2020 17:40:00 22.3 C 11.06 g/m*3 22.3 C 9.7 km/h
214 28-08-2020 17:45:00 22.2 C 11.19 g/m*3 22.2 C 9.7 km/h
215 28-08-2020 17:50:00 22.2 C 11.19 g/m*3 22.2 C 9.7 km/h
216 28-08-2020 17:55:00 22.3 C 11.26 g/m*3 22.3 C 8.1 km/h
217 28-08-2020 18:00:00 22.6 C 11.25 g/m*3 22.6 C 9.7 km/h
218 28-08-2020 18:05:00 22.6 C 10.65 g/m*3 22.6 C 14.5 km/h
219 28-08-2020 18:10:00 22.3 C 10.47 g/m*3 22.3 C 14.5 km/h
220 28-08-2020 18:15:00 22 C 10.29 g/m*3 22 C 16.1 km/h
221 28-08-2020 18:20:00 21.7 C 10.3 g/m*3 21.7 C 19.3 km/h
222 28-08-2020 18:25:00 21.5 C 10.37 g/m*3 21.5 C 12.9 km/h
223 28-08-2020 18:30:00 21.3 C 10.25 g/m*3 21.3 C 9.7 km/h
224 28-08-2020 18:35:00 21.2 C 10.56 g/m*3 21.2 C 8.1 km/h
225 28-08-2020 18:40:00 21 C 10.26 g/m*3 21 C 4.8 km/h
Sensor: Nr:Datum:Temp:Abs-Feuchte:Windchill:Wind:
Aussen-T/F 226 28-08-2020 18:45:00 20.8 C 10.14 g/m*3 20.8 C 12.9 km/h
227 28-08-2020 18:50:00 20.7 C 10.26 g/m*3 20.7 C 6.4 km/h
228 28-08-2020 18:55:00 20.6 C 10.2 g/m*3 20.6 C 4.8 km/h
229 28-08-2020 19:00:00 20.4 C 9.91 g/m*3 20.4 C 6.4 km/h
230 28-08-2020 19:05:00 20.3 C 9.67 g/m*3 20.3 C 6.4 km/h
231 28-08-2020 19:10:00 20.3 C 9.67 g/m*3 20.3 C 8.1 km/h
232 28-08-2020 19:15:00 20.2 C 9.44 g/m*3 20.2 C 9.7 km/h
233 28-08-2020 19:20:00 20.2 C 9.62 g/m*3 20.2 C 3.2 km/h
234 28-08-2020 19:25:00 20.2 C 9.62 g/m*3 20.2 C 6.4 km/h
235 28-08-2020 19:30:00 20.3 C 9.85 g/m*3 20.3 C 9.7 km/h
236 28-08-2020 19:35:00 20.4 C 9.73 g/m*3 20.4 C 3.2 km/h
237 28-08-2020 19:40:00 20.5 C 9.61 g/m*3 20.5 C 4.8 km/h
238 28-08-2020 19:45:00 20.6 C 9.66 g/m*3 20.6 C 1.6 km/h
239 28-08-2020 19:50:00 20.6 C 10.02 g/m*3 20.6 C 0 km/h
240 28-08-2020 19:55:00 20.4 C 10.26 g/m*3 20.4 C 3.2 km/h
241 28-08-2020 20:00:00 20.2 C 10.14 g/m*3 20.2 C 9.7 km/h
242 28-08-2020 20:05:00 20 C 9.85 g/m*3 20 C 6.4 km/h
243 28-08-2020 20:10:00 19.8 C 10.25 g/m*3 19.8 C 4.8 km/h
244 28-08-2020 20:15:00 19.7 C 10.02 g/m*3 19.7 C 6.4 km/h
245 28-08-2020 20:20:00 19.6 C 10.47 g/m*3 19.6 C 0 km/h
246 28-08-2020 20:25:00 19.3 C 10.28 g/m*3 19.3 C 0 km/h
247 28-08-2020 20:30:00 19.2 C 9.89 g/m*3 19.2 C 19.3 km/h
248 28-08-2020 20:35:00 18.7 C 10.09 g/m*3 18.7 C 17.7 km/h
249 28-08-2020 20:40:00 18.1 C 10.2 g/m*3 18.1 C 14.5 km/h
250 28-08-2020 20:45:00 17.3 C 10.16 g/m*3 17.3 C 16.1 km/h
Sensor: Nr:Datum:Temp:Abs-Feuchte:Windchill:Wind:
Aussen-T/F 251 28-08-2020 20:50:00 16.7 C 10.37 g/m*3 16.7 C 9.7 km/h
252 28-08-2020 20:55:00 16.4 C 10.61 g/m*3 16.4 C 8.1 km/h
253 28-08-2020 21:00:00 16.1 C 10.69 g/m*3 16.1 C 11.3 km/h
254 28-08-2020 21:05:00 15.8 C 10.77 g/m*3 15.8 C 9.7 km/h
255 28-08-2020 21:10:00 15.5 C 10.71 g/m*3 15.5 C 8.1 km/h
256 28-08-2020 21:15:00 15.3 C 10.71 g/m*3 15.3 C 8.1 km/h
257 28-08-2020 21:20:00 15.1 C 10.71 g/m*3 15.1 C 9.7 km/h
258 28-08-2020 21:25:00 14.9 C 10.71 g/m*3 14.9 C 8.1 km/h
259 28-08-2020 21:30:00 14.8 C 10.77 g/m*3 14.8 C 3.2 km/h
260 28-08-2020 21:35:00 14.6 C 10.64 g/m*3 14.6 C 1.6 km/h
261 28-08-2020 21:40:00 14.5 C 10.57 g/m*3 14.5 C 3.2 km/h
262 28-08-2020 21:45:00 14.4 C 10.51 g/m*3 14.4 C 3.2 km/h
263 28-08-2020 21:50:00 14.4 C 10.51 g/m*3 14.4 C 3.2 km/h
264 28-08-2020 21:55:00 14.3 C 10.44 g/m*3 14.3 C 0 km/h
265 28-08-2020 22:00:00 14.1 C 10.44 g/m*3 14.1 C 1.6 km/h
266 28-08-2020 22:05:00 13.9 C 10.31 g/m*3 13.9 C 1.6 km/h
267 28-08-2020 22:10:00 13.8 C 10.37 g/m*3 13.8 C 4.8 km/h
268 28-08-2020 22:15:00 13.7 C 10.3 g/m*3 13.7 C 3.2 km/h
269 28-08-2020 22:20:00 13.6 C 10.36 g/m*3 13.6 C 4.8 km/h
270 28-08-2020 22:25:00 13.6 C 10.36 g/m*3 13.6 C 3.2 km/h
271 28-08-2020 22:30:00 13.6 C 10.36 g/m*3 13.6 C 3.2 km/h
272 28-08-2020 22:35:00 13.5 C 10.29 g/m*3 13.5 C 3.2 km/h
273 28-08-2020 22:40:00 13.5 C 10.29 g/m*3 13.5 C 1.6 km/h
274 28-08-2020 22:45:00 13.4 C 10.23 g/m*3 13.4 C 3.2 km/h
275 28-08-2020 22:50:00 13.4 C 10.23 g/m*3 13.4 C 4.8 km/h
Sensor: Nr:Datum:Temp:Abs-Feuchte:Windchill:Wind:
Aussen-T/F 276 28-08-2020 22:55:00 13.4 C 10.35 g/m*3 13.4 C 4.8 km/h
277 28-08-2020 23:00:00 13.4 C 10.35 g/m*3 13.4 C 0 km/h
278 28-08-2020 23:05:00 13.3 C 10.28 g/m*3 13.3 C 1.6 km/h
279 28-08-2020 23:10:00 13.3 C 10.28 g/m*3 13.3 C 1.6 km/h
280 28-08-2020 23:15:00 13.2 C 10.22 g/m*3 13.2 C 1.6 km/h
281 28-08-2020 23:20:00 13.1 C 10.16 g/m*3 13.1 C 3.2 km/h
282 28-08-2020 23:25:00 12.9 C 10.03 g/m*3 12.9 C 1.6 km/h
283 28-08-2020 23:30:00 12.8 C 9.97 g/m*3 12.8 C 0 km/h
284 28-08-2020 23:35:00 12.8 C 9.97 g/m*3 12.8 C 1.6 km/h
285 28-08-2020 23:40:00 12.7 C 10.02 g/m*3 12.7 C 1.6 km/h
286 28-08-2020 23:45:00 12.7 C 10.02 g/m*3 12.7 C 1.6 km/h
287 28-08-2020 23:50:00 12.6 C 9.96 g/m*3 12.6 C 1.6 km/h
288 28-08-2020 23:55:00 12.6 C 9.96 g/m*3 12.6 C 1.6 km/h
289 29-08-2020 00:00:00 12.6 C 9.96 g/m*3 12.6 C 1.6 km/h
290 29-08-2020 00:05:00 12.5 C 9.89 g/m*3 12.5 C 1.6 km/h
291 29-08-2020 00:10:00 12.4 C 9.83 g/m*3 12.4 C 1.6 km/h
292 29-08-2020 00:15:00 12.4 C 9.94 g/m*3 12.4 C 1.6 km/h
293 29-08-2020 00:20:00 12.4 C 9.94 g/m*3 12.4 C 1.6 km/h
294 29-08-2020 00:25:00 12.4 C 9.94 g/m*3 12.4 C 1.6 km/h
295 29-08-2020 00:30:00 12.4 C 9.94 g/m*3 12.4 C 1.6 km/h
296 29-08-2020 00:35:00 12.4 C 9.94 g/m*3 12.4 C 1.6 km/h
297 29-08-2020 00:40:00 12.4 C 10.05 g/m*3 12.4 C 1.6 km/h
298 29-08-2020 00:45:00 12.6 C 10.18 g/m*3 12.6 C 3.2 km/h
299 29-08-2020 00:50:00 12.6 C 10.18 g/m*3 12.6 C 0 km/h
300 29-08-2020 00:55:00 12.6 C 10.07 g/m*3 12.6 C 0 km/h
Sensor: Nr:Datum:Temp:Abs-Feuchte:Windchill:Wind:
Aussen-T/F 301 29-08-2020 01:00:00 12.5 C 10 g/m*3 12.5 C 4.8 km/h
302 29-08-2020 01:05:00 12.5 C 10.11 g/m*3 12.5 C 4.8 km/h
303 29-08-2020 01:10:00 12.5 C 10.11 g/m*3 12.5 C 1.6 km/h
304 29-08-2020 01:15:00 12.6 C 10.18 g/m*3 12.6 C 3.2 km/h
305 29-08-2020 01:20:00 12.6 C 10.07 g/m*3 12.6 C 1.6 km/h
306 29-08-2020 01:25:00 12.5 C 10 g/m*3 12.5 C 1.6 km/h
307 29-08-2020 01:30:00 12.4 C 9.94 g/m*3 12.4 C 6.4 km/h
308 29-08-2020 01:35:00 12.4 C 10.05 g/m*3 12.4 C 6.4 km/h
309 29-08-2020 01:40:00 12.4 C 10.05 g/m*3 12.4 C 1.6 km/h
310 29-08-2020 01:45:00 12.3 C 9.88 g/m*3 12.3 C 1.6 km/h
311 29-08-2020 01:50:00 12.2 C 9.82 g/m*3 12.2 C 1.6 km/h
312 29-08-2020 01:55:00 12.2 C 9.82 g/m*3 12.2 C 0 km/h
313 29-08-2020 02:00:00 12.1 C 9.76 g/m*3 12.1 C 1.6 km/h
314 29-08-2020 02:05:00 12.1 C 9.87 g/m*3 12.1 C 3.2 km/h
315 29-08-2020 02:10:00 12.1 C 9.87 g/m*3 12.1 C 4.8 km/h
316 29-08-2020 02:15:00 12.1 C 9.87 g/m*3 12.1 C 3.2 km/h
317 29-08-2020 02:20:00 12.1 C 9.87 g/m*3 12.1 C 1.6 km/h
318 29-08-2020 02:25:00 12.1 C 9.87 g/m*3 12.1 C 1.6 km/h
319 29-08-2020 02:30:00 12.1 C 9.87 g/m*3 12.1 C 1.6 km/h
320 29-08-2020 02:35:00 12.1 C 9.87 g/m*3 12.1 C 0 km/h
321 29-08-2020 02:40:00 12 C 9.8 g/m*3 12 C 0 km/h
322 29-08-2020 02:45:00 12 C 9.8 g/m*3 12 C 0 km/h
323 29-08-2020 02:50:00 11.9 C 9.74 g/m*3 11.9 C 0 km/h
324 29-08-2020 02:55:00 11.9 C 9.85 g/m*3 11.9 C 4.8 km/h
325 29-08-2020 03:00:00 11.9 C 9.85 g/m*3 11.9 C 3.2 km/h
Sensor: Nr:Datum:Temp:Abs-Feuchte:Windchill:Wind:
Aussen-T/F 326 29-08-2020 03:05:00 11.9 C 9.85 g/m*3 11.9 C 0 km/h
327 29-08-2020 03:10:00 11.9 C 9.85 g/m*3 11.9 C 0 km/h
328 29-08-2020 03:15:00 11.8 C 9.68 g/m*3 11.8 C 0 km/h
329 29-08-2020 03:20:00 11.7 C 9.62 g/m*3 11.7 C 6.4 km/h
330 29-08-2020 03:25:00 11.7 C 9.62 g/m*3 11.7 C 0 km/h
331 29-08-2020 03:30:00 11.6 C 9.56 g/m*3 11.6 C 0 km/h
332 29-08-2020 03:35:00 11.6 C 9.56 g/m*3 11.6 C 0 km/h
333 29-08-2020 03:40:00 11.5 C 9.5 g/m*3 11.5 C 1.6 km/h
334 29-08-2020 03:45:00 11.6 C 9.67 g/m*3 11.6 C 3.2 km/h
335 29-08-2020 03:50:00 11.7 C 9.73 g/m*3 11.7 C 3.2 km/h
336 29-08-2020 03:55:00 11.7 C 9.83 g/m*3 11.7 C 1.6 km/h
337 29-08-2020 04:00:00 11.8 C 9.89 g/m*3 11.8 C 0 km/h
338 29-08-2020 04:05:00 11.9 C 9.96 g/m*3 11.9 C 1.6 km/h
339 29-08-2020 04:10:00 11.9 C 9.85 g/m*3 11.9 C 0 km/h
340 29-08-2020 04:15:00 11.8 C 9.79 g/m*3 11.8 C 1.6 km/h
341 29-08-2020 04:20:00 11.8 C 9.79 g/m*3 11.8 C 3.2 km/h
342 29-08-2020 04:25:00 11.8 C 9.79 g/m*3 11.8 C 3.2 km/h
343 29-08-2020 04:30:00 11.8 C 9.79 g/m*3 11.8 C 3.2 km/h
344 29-08-2020 04:35:00 11.7 C 9.73 g/m*3 11.7 C 3.2 km/h
345 29-08-2020 04:40:00 11.7 C 9.73 g/m*3 11.7 C 3.2 km/h
346 29-08-2020 04:45:00 11.6 C 9.67 g/m*3 11.6 C 0 km/h
347 29-08-2020 04:50:00 11.5 C 9.61 g/m*3 11.5 C 3.2 km/h
348 29-08-2020 04:55:00 11.4 C 9.55 g/m*3 11.4 C 3.2 km/h
349 29-08-2020 05:00:00 11.3 C 9.49 g/m*3 11.3 C 3.2 km/h
350 29-08-2020 05:05:00 11.2 C 9.43 g/m*3 11.2 C 3.2 km/h
Sensor: Nr:Datum:Temp:Abs-Feuchte:Windchill:Wind:
Aussen-T/F 351 29-08-2020 05:10:00 11.2 C 9.43 g/m*3 11.2 C 3.2 km/h
352 29-08-2020 05:15:00 11.2 C 9.43 g/m*3 11.2 C 3.2 km/h
353 29-08-2020 05:20:00 11.2 C 9.43 g/m*3 11.2 C 3.2 km/h
354 29-08-2020 05:25:00 11.2 C 9.53 g/m*3 11.2 C 0 km/h
355 29-08-2020 05:30:00 11.2 C 9.53 g/m*3 11.2 C 0 km/h
356 29-08-2020 05:35:00 11.2 C 9.43 g/m*3 11.2 C 0 km/h
357 29-08-2020 05:40:00 11.1 C 9.37 g/m*3 11.1 C 0 km/h
358 29-08-2020 05:45:00 11.1 C 9.37 g/m*3 11.1 C 0 km/h
359 29-08-2020 05:50:00 11 C 9.31 g/m*3 11 C 0 km/h
360 29-08-2020 05:55:00 11 C 9.31 g/m*3 11 C 0 km/h
361 29-08-2020 06:00:00 10.9 C 9.35 g/m*3 10.9 C 0 km/h
362 29-08-2020 06:05:00 10.9 C 9.35 g/m*3 10.9 C 0 km/h
363 29-08-2020 06:10:00 10.9 C 9.35 g/m*3 10.9 C 0 km/h
364 29-08-2020 06:15:00 10.9 C 9.35 g/m*3 10.9 C 0 km/h
365 29-08-2020 06:20:00 10.9 C 9.35 g/m*3 10.9 C 0 km/h
366 29-08-2020 06:25:00 10.9 C 9.35 g/m*3 10.9 C 0 km/h
367 29-08-2020 06:30:00 10.9 C 9.35 g/m*3 10.9 C 0 km/h
368 29-08-2020 06:35:00 11 C 9.41 g/m*3 11 C 0 km/h
369 29-08-2020 06:40:00 11 C 9.41 g/m*3 11 C 0 km/h
370 29-08-2020 06:45:00 11.1 C 9.57 g/m*3 11.1 C 0 km/h
371 29-08-2020 06:50:00 11.1 C 9.57 g/m*3 11.1 C 0 km/h
372 29-08-2020 06:55:00 11.1 C 9.57 g/m*3 11.1 C 0 km/h
373 29-08-2020 07:00:00 11.1 C 9.57 g/m*3 11.1 C 3.2 km/h
374 29-08-2020 07:05:00 11.2 C 9.63 g/m*3 11.2 C 1.6 km/h
375 29-08-2020 07:10:00 11.2 C 9.63 g/m*3 11.2 C 0 km/h
Sensor: Nr:Datum:Temp:Abs-Feuchte:Windchill:Wind:
Aussen-T/F 376 29-08-2020 07:15:00 11.2 C 9.63 g/m*3 11.2 C 1.6 km/h
377 29-08-2020 07:20:00 11.2 C 9.63 g/m*3 11.2 C 3.2 km/h
378 29-08-2020 07:25:00 11.2 C 9.63 g/m*3 11.2 C 1.6 km/h
379 29-08-2020 07:30:00 11.3 C 9.69 g/m*3 11.3 C 4.8 km/h
380 29-08-2020 07:35:00 11.3 C 9.69 g/m*3 11.3 C 0 km/h
381 29-08-2020 07:40:00 11.3 C 9.69 g/m*3 11.3 C 0 km/h
382 29-08-2020 07:45:00 11.3 C 9.69 g/m*3 11.3 C 0 km/h
383 29-08-2020 07:50:00 11.4 C 9.75 g/m*3 11.4 C 1.6 km/h
384 29-08-2020 07:55:00 11.6 C 9.87 g/m*3 11.6 C 0 km/h
385 29-08-2020 08:00:00 11.7 C 9.94 g/m*3 11.7 C 3.2 km/h
386 29-08-2020 08:05:00 11.8 C 10 g/m*3 11.8 C 3.2 km/h
387 29-08-2020 08:10:00 11.8 C 10.1 g/m*3 11.8 C 0 km/h
388 29-08-2020 08:15:00 11.9 C 10.17 g/m*3 11.9 C 0 km/h
389 29-08-2020 08:20:00 12.1 C 10.29 g/m*3 12.1 C 0 km/h
390 29-08-2020 08:25:00 12.2 C 10.36 g/m*3 12.2 C 4.8 km/h
391 29-08-2020 08:30:00 12.3 C 10.42 g/m*3 12.3 C 1.6 km/h
392 29-08-2020 08:35:00 12.4 C 10.38 g/m*3 12.4 C 4.8 km/h
393 29-08-2020 08:40:00 12.6 C 10.51 g/m*3 12.6 C 4.8 km/h
394 29-08-2020 08:45:00 12.8 C 10.64 g/m*3 12.8 C 9.7 km/h
395 29-08-2020 08:50:00 12.9 C 10.59 g/m*3 12.9 C 6.4 km/h
396 29-08-2020 08:55:00 13.1 C 10.73 g/m*3 13.1 C 8.1 km/h
397 29-08-2020 09:00:00 13.3 C 10.74 g/m*3 13.3 C 14.5 km/h
398 29-08-2020 09:05:00 13.6 C 10.71 g/m*3 13.6 C 12.9 km/h
399 29-08-2020 09:10:00 13.9 C 10.67 g/m*3 13.9 C 8.1 km/h
400 29-08-2020 09:15:00 14.3 C 10.81 g/m*3 14.3 C 14.5 km/h
Sensor: Nr:Datum:Temp:Abs-Feuchte:Windchill:Wind:
Aussen-T/F 401 29-08-2020 09:20:00 14.6 C 10.89 g/m*3 14.6 C 9.7 km/h
402 29-08-2020 09:25:00 14.8 C 10.77 g/m*3 14.8 C 11.3 km/h
403 29-08-2020 09:30:00 15 C 10.77 g/m*3 15 C 4.8 km/h
404 29-08-2020 09:35:00 15.1 C 10.84 g/m*3 15.1 C 6.4 km/h
405 29-08-2020 09:40:00 15.2 C 10.77 g/m*3 15.2 C 9.7 km/h
406 29-08-2020 09:45:00 15.4 C 10.9 g/m*3 15.4 C 9.7 km/h
407 29-08-2020 09:50:00 15.7 C 10.84 g/m*3 15.7 C 12.9 km/h
408 29-08-2020 09:55:00 15.9 C 10.83 g/m*3 15.9 C 14.5 km/h
409 29-08-2020 10:00:00 16.1 C 10.83 g/m*3 16.1 C 16.1 km/h
410 29-08-2020 10:05:00 16.3 C 10.82 g/m*3 16.3 C 19.3 km/h
411 29-08-2020 10:10:00 16.3 C 10.82 g/m*3 16.3 C 14.5 km/h
412 29-08-2020 10:15:00 16.5 C 10.95 g/m*3 16.5 C 19.3 km/h
413 29-08-2020 10:20:00 16.6 C 10.88 g/m*3 16.6 C 16.1 km/h
414 29-08-2020 10:25:00 16.6 C 11.02 g/m*3 16.6 C 11.3 km/h
415 29-08-2020 10:30:00 16.6 C 11.02 g/m*3 16.6 C 9.7 km/h
416 29-08-2020 10:35:00 16.6 C 10.88 g/m*3 16.6 C 9.7 km/h
417 29-08-2020 10:40:00 16.7 C 11.08 g/m*3 16.7 C 11.3 km/h
418 29-08-2020 10:45:00 16.8 C 11.01 g/m*3 16.8 C 14.5 km/h
419 29-08-2020 10:50:00 17 C 11.14 g/m*3 17 C 12.9 km/h
420 29-08-2020 10:55:00 17.2 C 11.13 g/m*3 17.2 C 8.1 km/h
421 29-08-2020 11:00:00 17.3 C 11.2 g/m*3 17.3 C 12.9 km/h
422 29-08-2020 11:05:00 17.4 C 11.12 g/m*3 17.4 C 16.1 km/h
423 29-08-2020 11:10:00 17.6 C 11.1 g/m*3 17.6 C 17.7 km/h
424 29-08-2020 11:15:00 17.5 C 11.03 g/m*3 17.5 C 12.9 km/h
425 29-08-2020 11:20:00 17.5 C 11.03 g/m*3 17.5 C 14.5 km/h
Sensor: Nr:Datum:Temp:Abs-Feuchte:Windchill:Wind:
Aussen-T/F 426 29-08-2020 11:25:00 17.6 C 11.1 g/m*3 17.6 C 14.5 km/h
427 29-08-2020 11:30:00 17.7 C 11.01 g/m*3 17.7 C 11.3 km/h
428 29-08-2020 11:35:00 17.7 C 10.86 g/m*3 17.7 C 20.9 km/h
429 29-08-2020 11:40:00 17.8 C 11.08 g/m*3 17.8 C 19.3 km/h
430 29-08-2020 11:45:00 18 C 11.06 g/m*3 18 C 16.1 km/h
431 29-08-2020 11:50:00 18.3 C 11.1 g/m*3 18.3 C 14.5 km/h
432 29-08-2020 11:55:00 18.4 C 11.32 g/m*3 18.4 C 11.3 km/h
433 29-08-2020 12:00:00 18.7 C 11.21 g/m*3 18.7 C 19.3 km/h
434 29-08-2020 12:05:00 18.9 C 11.34 g/m*3 18.9 C 20.9 km/h
435 29-08-2020 12:10:00 18.9 C 11.18 g/m*3 18.9 C 16.1 km/h
436 29-08-2020 12:15:00 18.8 C 11.27 g/m*3 18.8 C 14.5 km/h
437 29-08-2020 12:20:00 18.6 C 10.82 g/m*3 18.6 C 12.9 km/h
438 29-08-2020 12:25:00 18.5 C 11.08 g/m*3 18.5 C 11.3 km/h
439 29-08-2020 12:30:00 18.6 C 10.98 g/m*3 18.6 C 14.5 km/h
440 29-08-2020 12:35:00 18.8 C 10.95 g/m*3 18.8 C 17.7 km/h
441 29-08-2020 12:40:00 18.9 C 10.69 g/m*3 18.9 C 19.3 km/h
442 29-08-2020 12:45:00 19 C 10.92 g/m*3 19 C 19.3 km/h
443 29-08-2020 12:50:00 19.1 C 11.15 g/m*3 19.1 C 14.5 km/h
444 29-08-2020 12:55:00 19.3 C 11.28 g/m*3 19.3 C 14.5 km/h
445 29-08-2020 13:00:00 19.3 C 11.11 g/m*3 19.3 C 17.7 km/h
446 29-08-2020 13:05:00 19.2 C 11.21 g/m*3 19.2 C 17.7 km/h
447 29-08-2020 13:10:00 19.1 C 11.15 g/m*3 19.1 C 16.1 km/h
448 29-08-2020 13:15:00 19.1 C 10.82 g/m*3 19.1 C 16.1 km/h
449 29-08-2020 13:20:00 19.2 C 10.88 g/m*3 19.2 C 12.9 km/h
450 29-08-2020 13:25:00 19.3 C 10.95 g/m*3 19.3 C 12.9 km/h
Sensor: Nr:Datum:Temp:Abs-Feuchte:Windchill:Wind:
Aussen-T/F 451 29-08-2020 13:30:00 19.4 C 11.01 g/m*3 19.4 C 14.5 km/h
452 29-08-2020 13:35:00 19.5 C 10.91 g/m*3 19.5 C 14.5 km/h
453 29-08-2020 13:40:00 19.4 C 10.84 g/m*3 19.4 C 16.1 km/h
454 29-08-2020 13:45:00 19.6 C 10.8 g/m*3 19.6 C 14.5 km/h
455 29-08-2020 13:50:00 19.6 C 10.8 g/m*3 19.6 C 6.4 km/h
456 29-08-2020 13:55:00 19.5 C 10.41 g/m*3 19.5 C 9.7 km/h
457 29-08-2020 14:00:00 19.6 C 10.8 g/m*3 19.6 C 11.3 km/h
458 29-08-2020 14:05:00 19.7 C 10.7 g/m*3 19.7 C 19.3 km/h
459 29-08-2020 14:10:00 19.9 C 10.48 g/m*3 19.9 C 16.1 km/h
460 29-08-2020 14:15:00 19.9 C 10.48 g/m*3 19.9 C 17.7 km/h
461 29-08-2020 14:20:00 20.1 C 10.78 g/m*3 20.1 C 14.5 km/h
462 29-08-2020 14:25:00 20.3 C 10.73 g/m*3 20.3 C 11.3 km/h
463 29-08-2020 14:30:00 20.4 C 10.79 g/m*3 20.4 C 14.5 km/h
464 29-08-2020 14:35:00 20.6 C 10.74 g/m*3 20.6 C 14.5 km/h
465 29-08-2020 14:40:00 20.7 C 10.8 g/m*3 20.7 C 11.3 km/h
466 29-08-2020 14:45:00 20.7 C 10.62 g/m*3 20.7 C 19.3 km/h
467 29-08-2020 14:50:00 20.7 C 10.62 g/m*3 20.7 C 16.1 km/h
468 29-08-2020 14:55:00 20.8 C 10.68 g/m*3 20.8 C 16.1 km/h
469 29-08-2020 15:00:00 20.9 C 10.75 g/m*3 20.9 C 12.9 km/h
470 29-08-2020 15:05:00 20.9 C 10.56 g/m*3 20.9 C 11.3 km/h
471 29-08-2020 15:10:00 21.1 C 10.69 g/m*3 21.1 C 12.9 km/h
472 29-08-2020 15:15:00 21.2 C 10.19 g/m*3 21.2 C 16.1 km/h
473 29-08-2020 15:20:00 21.3 C 10.25 g/m*3 21.3 C 11.3 km/h
474 29-08-2020 15:25:00 21.5 C 10.18 g/m*3 21.5 C 17.7 km/h
475 29-08-2020 15:30:00 21.6 C 10.24 g/m*3 21.6 C 11.3 km/h
Sensor: Nr:Datum:Temp:Abs-Feuchte:Windchill:Wind:
Aussen-T/F 476 29-08-2020 15:35:00 21.6 C 10.24 g/m*3 21.6 C 14.5 km/h
477 29-08-2020 15:40:00 21.4 C 10.31 g/m*3 21.4 C 11.3 km/h
478 29-08-2020 15:45:00 21.3 C 10.07 g/m*3 21.3 C 12.9 km/h
479 29-08-2020 15:50:00 21.4 C 10.12 g/m*3 21.4 C 14.5 km/h
480 29-08-2020 15:55:00 21.6 C 10.24 g/m*3 21.6 C 11.3 km/h
481 29-08-2020 16:00:00 21.9 C 10.61 g/m*3 21.9 C 11.3 km/h
482 29-08-2020 16:05:00 22.2 C 10.6 g/m*3 22.2 C 20.9 km/h
483 29-08-2020 16:10:00 22.2 C 10.6 g/m*3 22.2 C 11.3 km/h
484 29-08-2020 16:15:00 22.4 C 10.72 g/m*3 22.4 C 12.9 km/h
485 29-08-2020 16:20:00 22.6 C 10.45 g/m*3 22.6 C 14.5 km/h
486 29-08-2020 16:25:00 22.8 C 10.36 g/m*3 22.8 C 12.9 km/h
487 29-08-2020 16:30:00 23.1 C 10.13 g/m*3 23.1 C 9.7 km/h
488 29-08-2020 16:35:00 23 C 10.28 g/m*3 23 C 8.1 km/h
489 29-08-2020 16:40:00 22.8 C 10.16 g/m*3 22.8 C 6.4 km/h
490 29-08-2020 16:45:00 22.5 C 10.19 g/m*3 22.5 C 8.1 km/h
491 29-08-2020 16:50:00 22.3 C 10.07 g/m*3 22.3 C 1.6 km/h
492 29-08-2020 16:55:00 22.2 C 10.21 g/m*3 22.2 C 0 km/h
493 29-08-2020 17:00:00 22.3 C 10.27 g/m*3 22.3 C 12.9 km/h
494 29-08-2020 17:05:00 22.8 C 10.36 g/m*3 22.8 C 9.7 km/h
495 29-08-2020 17:10:00 23.3 C 10.66 g/m*3 23.3 C 9.7 km/h
496 29-08-2020 17:15:00 23.8 C 10.33 g/m*3 23.8 C 17.7 km/h
497 29-08-2020 17:20:00 23.7 C 10.27 g/m*3 23.7 C 12.9 km/h
498 29-08-2020 17:25:00 23.3 C 9.83 g/m*3 23.3 C 11.3 km/h
499 29-08-2020 17:30:00 22.7 C 10.1 g/m*3 22.7 C 14.5 km/h
500 29-08-2020 17:35:00 22.3 C 9.87 g/m*3 22.3 C 6.4 km/h
Sensor: Nr:Datum:Temp:Abs-Feuchte:Windchill:Wind:
Aussen-T/F 501 29-08-2020 17:40:00 22.3 C 10.07 g/m*3 22.3 C 9.7 km/h
502 29-08-2020 17:45:00 22.1 C 9.96 g/m*3 22.1 C 12.9 km/h
503 29-08-2020 17:50:00 22 C 10.29 g/m*3 22 C 12.9 km/h
504 29-08-2020 17:55:00 22.4 C 10.13 g/m*3 22.4 C 8.1 km/h
505 29-08-2020 18:00:00 22.8 C 10.16 g/m*3 22.8 C 11.3 km/h
506 29-08-2020 18:05:00 22.6 C 10.25 g/m*3 22.6 C 4.8 km/h
507 29-08-2020 18:10:00 22.3 C 10.27 g/m*3 22.3 C 0 km/h
508 29-08-2020 18:15:00 22.1 C 10.54 g/m*3 22.1 C 0 km/h
509 29-08-2020 18:20:00 21.7 C 10.3 g/m*3 21.7 C 1.6 km/h
510 29-08-2020 18:25:00 21.4 C 10.31 g/m*3 21.4 C 0 km/h
511 29-08-2020 18:30:00 21.4 C 10.69 g/m*3 21.4 C 0 km/h
512 29-08-2020 18:35:00 21.6 C 10.81 g/m*3 21.6 C 0 km/h
513 29-08-2020 18:40:00 21.6 C 11.19 g/m*3 21.6 C 0 km/h
514 29-08-2020 18:45:00 21.4 C 11.25 g/m*3 21.4 C 0 km/h
515 29-08-2020 18:50:00 21.6 C 11.57 g/m*3 21.6 C 0 km/h
516 29-08-2020 18:55:00 22.1 C 11.13 g/m*3 22.1 C 8.1 km/h
517 29-08-2020 19:00:00 22.6 C 10.45 g/m*3 22.6 C 3.2 km/h
518 29-08-2020 19:05:00 22.5 C 10.19 g/m*3 22.5 C 6.4 km/h
519 29-08-2020 19:10:00 22.4 C 10.33 g/m*3 22.4 C 6.4 km/h
520 29-08-2020 19:15:00 22.3 C 10.27 g/m*3 22.3 C 8.1 km/h
521 29-08-2020 19:20:00 22.1 C 10.74 g/m*3 22.1 C 3.2 km/h
522 29-08-2020 19:25:00 22.1 C 10.93 g/m*3 22.1 C 0 km/h
523 29-08-2020 19:30:00 22.1 C 11.13 g/m*3 22.1 C 0 km/h
524 29-08-2020 19:35:00 22.1 C 11.13 g/m*3 22.1 C 0 km/h
525 29-08-2020 19:40:00 21.8 C 10.94 g/m*3 21.8 C 1.6 km/h
Sensor: Nr:Datum:Temp:Abs-Feuchte:Windchill:Wind:
Aussen-T/F 526 29-08-2020 19:45:00 21.6 C 11.19 g/m*3 21.6 C 4.8 km/h
527 29-08-2020 19:50:00 21.4 C 11.25 g/m*3 21.4 C 3.2 km/h
528 29-08-2020 19:55:00 21.3 C 11.18 g/m*3 21.3 C 0 km/h
529 29-08-2020 20:00:00 21.2 C 11.3 g/m*3 21.2 C 0 km/h
530 29-08-2020 20:05:00 21 C 11.17 g/m*3 21 C 0 km/h
531 29-08-2020 20:10:00 20.7 C 10.98 g/m*3 20.7 C 0 km/h
532 29-08-2020 20:15:00 20.4 C 11.14 g/m*3 20.4 C 1.6 km/h
533 29-08-2020 20:20:00 20.1 C 11.13 g/m*3 20.1 C 6.4 km/h
534 29-08-2020 20:25:00 19.8 C 11.1 g/m*3 19.8 C 8.1 km/h
535 29-08-2020 20:30:00 19.7 C 11.04 g/m*3 19.7 C 6.4 km/h
536 29-08-2020 20:35:00 19.4 C 11.01 g/m*3 19.4 C 6.4 km/h
537 29-08-2020 20:40:00 19.3 C 11.11 g/m*3 19.3 C 3.2 km/h
538 29-08-2020 20:45:00 19.1 C 10.98 g/m*3 19.1 C 1.6 km/h
539 29-08-2020 20:50:00 19 C 11.08 g/m*3 19 C 3.2 km/h
540 29-08-2020 20:55:00 18.9 C 11.02 g/m*3 18.9 C 1.6 km/h
541 29-08-2020 21:00:00 18.8 C 11.11 g/m*3 18.8 C 1.6 km/h
542 29-08-2020 21:05:00 18.7 C 11.05 g/m*3 18.7 C 1.6 km/h
543 29-08-2020 21:10:00 18.7 C 11.05 g/m*3 18.7 C 6.4 km/h
544 29-08-2020 21:15:00 18.6 C 11.46 g/m*3 18.6 C 9.7 km/h
545 29-08-2020 21:20:00 18.2 C 11.35 g/m*3 18.2 C 11.3 km/h
546 29-08-2020 21:25:00 18.1 C 11.43 g/m*3 18.1 C 4.8 km/h
547 29-08-2020 21:30:00 17.8 C 11.84 g/m*3 17.8 C 9.7 km/h
548 29-08-2020 21:35:00 17.4 C 11.71 g/m*3 17.4 C 9.7 km/h
549 29-08-2020 21:40:00 17.1 C 11.65 g/m*3 17.1 C 8.1 km/h
550 29-08-2020 21:45:00 16.6 C 11.3 g/m*3 16.6 C 11.3 km/h
Sensor: Nr:Datum:Temp:Abs-Feuchte:Windchill:Wind:
Aussen-T/F 551 29-08-2020 21:50:00 16.2 C 11.31 g/m*3 16.2 C 11.3 km/h
552 29-08-2020 21:55:00 15.9 C 11.24 g/m*3 15.9 C 11.3 km/h
553 29-08-2020 22:00:00 15.7 C 11.24 g/m*3 15.7 C 8.1 km/h
554 29-08-2020 22:05:00 15.5 C 11.1 g/m*3 15.5 C 9.7 km/h
555 29-08-2020 22:10:00 15.3 C 11.1 g/m*3 15.3 C 8.1 km/h
556 29-08-2020 22:15:00 15.2 C 11.16 g/m*3 15.2 C 9.7 km/h
557 29-08-2020 22:20:00 15.1 C 11.22 g/m*3 15.1 C 1.6 km/h
558 29-08-2020 22:25:00 15 C 11.16 g/m*3 15 C 3.2 km/h
559 29-08-2020 22:30:00 14.8 C 11.15 g/m*3 14.8 C 4.8 km/h
560 29-08-2020 22:35:00 14.7 C 11.08 g/m*3 14.7 C 11.3 km/h
561 29-08-2020 22:40:00 14.4 C 10.88 g/m*3 14.4 C 9.7 km/h
562 29-08-2020 22:45:00 14.3 C 10.81 g/m*3 14.3 C 8.1 km/h
563 29-08-2020 22:50:00 14.1 C 10.68 g/m*3 14.1 C 6.4 km/h
564 29-08-2020 22:55:00 13.9 C 10.55 g/m*3 13.9 C 6.4 km/h
565 29-08-2020 23:00:00 13.7 C 10.54 g/m*3 13.7 C 6.4 km/h
566 29-08-2020 23:05:00 13.6 C 10.47 g/m*3 13.6 C 6.4 km/h
567 29-08-2020 23:10:00 13.4 C 10.46 g/m*3 13.4 C 4.8 km/h
568 29-08-2020 23:15:00 13.3 C 10.4 g/m*3 13.3 C 3.2 km/h
569 29-08-2020 23:20:00 13.3 C 10.51 g/m*3 13.3 C 1.6 km/h
570 29-08-2020 23:25:00 13.3 C 10.51 g/m*3 13.3 C 0 km/h
571 29-08-2020 23:30:00 13.3 C 10.51 g/m*3 13.3 C 3.2 km/h
572 29-08-2020 23:35:00 13.3 C 10.63 g/m*3 13.3 C 0 km/h
573 29-08-2020 23:40:00 13.3 C 10.63 g/m*3 13.3 C 4.8 km/h
574 29-08-2020 23:45:00 13.3 C 10.63 g/m*3 13.3 C 6.4 km/h
575 29-08-2020 23:50:00 13.3 C 10.63 g/m*3 13.3 C 4.8 km/h
Sensor: Nr:Datum:Temp:Abs-Feuchte:Windchill:Wind:
Aussen-T/F 576 29-08-2020 23:55:00 13.3 C 10.63 g/m*3 13.3 C 6.4 km/h

Legende:
   Min
   Max


Maximal/Minimal-Werte vom 28.08.2020 - 29.08.2020

Sensor Min Max Avg
Temp
(Aussen-T/F)
10.9 °C
29-08-2020  06:00:00
23.8 °C
29-08-2020  17:15:00
17.06 °C
Abs-Feuchte
(Aussen-T/F)
9.31 g/m*3
29-08-2020  05:50:00
13.02 g/m*3
28-08-2020  08:25:00
11.04 g/m*3
Windchill
(Aussen-T/F)
10.9 C
29-08-2020  06:00:00
23.8 C
29-08-2020  17:15:00
17.03 C

Die Daten stammen von einer Davis Vantage Pro 2 Wetter-Station und werden unter Linux mit der Software wview2wettercgi und aufbereitet. Alle Angaben erfolgen ohne Gewähr für ihre Vollständigkeit oder Richtigkeit.
Kontakt: Rainer Krienke krienke@uni-koblenz.de . Meine Webseiten an der Uni Koblenz oder privat.
Version: $Revision: 0.78 $